createdAt,value
2018-08-24T00:02:23.651Z,18.40
2018-08-24T00:04:51.751Z,18.40
2018-08-24T00:07:19.352Z,18.50
2018-08-24T00:09:47.295Z,18.50
2018-08-24T00:12:15.407Z,18.50
2018-08-24T00:14:43.467Z,18.50
2018-08-24T00:17:16.760Z,18.50
2018-08-24T00:19:44.275Z,18.50
2018-08-24T00:22:11.823Z,18.40
2018-08-24T00:24:39.716Z,18.40
2018-08-24T00:27:08.575Z,18.40
2018-08-24T00:29:36.069Z,18.40
2018-08-24T00:32:03.876Z,18.50
2018-08-24T00:34:31.700Z,18.50
2018-08-24T00:36:59.207Z,18.40
2018-08-24T00:39:26.716Z,18.40
2018-08-24T00:41:54.612Z,18.40
2018-08-24T00:44:22.103Z,18.40
2018-08-24T00:46:50.444Z,18.30
2018-08-24T00:49:17.927Z,18.40
2018-08-24T00:51:45.749Z,18.40
2018-08-24T00:54:13.256Z,18.50
2018-08-24T00:56:40.848Z,18.50
2018-08-24T00:59:08.683Z,18.50
2018-08-24T01:01:36.656Z,18.50
2018-08-24T01:04:04.822Z,18.40
2018-08-24T01:06:32.620Z,18.40
2018-08-24T01:09:00.151Z,18.50
2018-08-24T01:11:34.672Z,18.40
2018-08-24T01:14:02.572Z,18.40
2018-08-24T01:16:35.692Z,18.50
2018-08-24T01:19:03.212Z,18.50
2018-08-24T01:21:31.498Z,18.50
2018-08-24T01:23:59.025Z,18.50
2018-08-24T01:26:27.636Z,18.50
2018-08-24T01:28:55.135Z,18.50
2018-08-24T01:31:23.046Z,18.50
2018-08-24T01:33:50.980Z,18.50
2018-08-24T01:36:18.492Z,18.30
2018-08-24T01:38:46.500Z,18.30
2018-08-24T01:41:14.343Z,18.40
2018-08-24T01:43:41.849Z,18.40
2018-08-24T01:46:11.438Z,18.40
2018-08-24T01:48:39.895Z,18.40
2018-08-24T01:51:07.723Z,18.50
2018-08-24T01:53:35.583Z,18.50
2018-08-24T01:56:03.100Z,18.50
2018-08-24T01:58:31.039Z,18.40
2018-08-24T02:00:58.890Z,18.40
2018-08-24T02:03:27.104Z,18.40
2018-08-24T02:06:00.336Z,18.40
2018-08-24T02:08:27.827Z,18.50
2018-08-24T02:10:55.811Z,18.50
2018-08-24T02:13:29.571Z,18.40
2018-08-24T02:15:57.164Z,18.50
2018-08-24T02:18:31.289Z,18.50
2018-08-24T02:21:04.619Z,18.50
2018-08-24T02:23:32.121Z,18.50
2018-08-24T02:26:00.079Z,18.50
2018-08-24T02:28:28.051Z,18.50
2018-08-24T02:30:56.055Z,18.50
2018-08-24T02:33:23.584Z,18.50
2018-08-24T02:35:51.084Z,18.50
2018-08-24T02:38:19.249Z,18.50
2018-08-24T02:40:46.772Z,18.60
2018-08-24T02:43:14.291Z,18.50
2018-08-24T02:45:42.481Z,18.60
2018-08-24T02:48:09.988Z,18.60
2018-08-24T02:50:37.500Z,18.60
2018-08-24T02:53:05.380Z,18.60
2018-08-24T02:55:32.860Z,18.60
2018-08-24T02:58:00.719Z,18.60
2018-08-24T03:00:28.303Z,18.50
2018-08-24T03:02:56.240Z,18.60
2018-08-24T03:05:23.892Z,18.60
2018-08-24T03:07:51.972Z,18.50
2018-08-24T03:10:19.575Z,18.50
2018-08-24T03:12:47.516Z,18.50
2018-08-24T03:15:15.588Z,18.50
2018-08-24T03:17:49.359Z,18.60
2018-08-24T03:20:16.887Z,18.60
2018-08-24T03:22:44.396Z,18.60
2018-08-24T03:25:12.485Z,18.70
2018-08-24T03:27:40.485Z,18.70
2018-08-24T03:30:07.996Z,18.70
2018-08-24T03:32:35.807Z,18.70
2018-08-24T03:35:04.248Z,18.60
2018-08-24T03:37:31.769Z,18.50
2018-08-24T03:39:59.251Z,18.50
2018-08-24T03:42:26.904Z,18.50
2018-08-24T03:44:54.884Z,18.50
2018-08-24T03:47:22.817Z,18.40
2018-08-24T03:49:50.313Z,18.40
2018-08-24T03:52:18.028Z,18.40
2018-08-24T03:54:45.943Z,18.30
2018-08-24T03:57:14.022Z,18.10
2018-08-24T03:59:42.088Z,18.10
2018-08-24T04:02:11.521Z,18.10
2018-08-24T04:04:40.044Z,18.20
2018-08-24T04:07:07.975Z,18.20
2018-08-24T04:09:35.532Z,18.20
2018-08-24T04:12:03.444Z,18.20
2018-08-24T04:14:31.387Z,18.20
2018-08-24T04:17:04.628Z,18.10
2018-08-24T04:19:32.234Z,18.10
2018-08-24T04:22:00.031Z,18.10
2018-08-24T04:24:28.110Z,18.20
2018-08-24T04:26:56.643Z,18.20
2018-08-24T04:29:24.642Z,18.10
2018-08-24T04:31:52.823Z,18.20
2018-08-24T04:34:20.348Z,18.20
2018-08-24T04:36:47.983Z,18.30
2018-08-24T04:39:15.559Z,18.20
2018-08-24T04:41:44.102Z,18.30
2018-08-24T04:44:12.201Z,18.30
2018-08-24T04:46:40.251Z,18.40
2018-08-24T04:49:07.913Z,18.40
2018-08-24T04:51:35.757Z,18.30
2018-08-24T04:54:03.728Z,18.40
2018-08-24T04:56:31.547Z,18.40
2018-08-24T04:59:00.083Z,18.50
2018-08-24T05:01:28.156Z,18.40
2018-08-24T05:03:56.948Z,18.50
2018-08-24T05:06:24.542Z,18.70
2018-08-24T05:08:52.044Z,18.70
2018-08-24T05:11:20.814Z,18.80
2018-08-24T05:13:48.958Z,18.90
2018-08-24T05:16:16.470Z,18.90
2018-08-24T05:18:43.955Z,18.90
2018-08-24T05:21:12.129Z,18.70
2018-08-24T05:23:39.611Z,18.80
2018-08-24T05:26:07.109Z,18.90
2018-08-24T05:28:35.056Z,19.10
2018-08-24T05:31:02.943Z,19.30
2018-08-24T05:33:30.467Z,19.40
2018-08-24T05:35:57.988Z,19.40
2018-08-24T05:38:27.638Z,19.50
2018-08-24T05:40:55.164Z,19.60
2018-08-24T05:43:22.659Z,19.70
2018-08-24T05:45:50.668Z,19.80
2018-08-24T05:48:18.332Z,19.80
2018-08-24T05:50:46.408Z,19.80
2018-08-24T05:53:14.268Z,19.90
2018-08-24T05:55:42.264Z,19.90
2018-08-24T05:58:10.307Z,19.90
2018-08-24T06:00:39.531Z,19.90
2018-08-24T06:03:08.103Z,19.90
2018-08-24T06:05:35.741Z,19.90
2018-08-24T06:08:03.780Z,20.00
2018-08-24T06:10:31.548Z,20.00
2018-08-24T06:12:59.983Z,20.10
2018-08-24T06:15:28.868Z,20.10
2018-08-24T06:17:57.812Z,20.20
2018-08-24T06:20:25.316Z,20.30
2018-08-24T06:22:53.175Z,20.50
2018-08-24T06:25:20.974Z,20.70
2018-08-24T06:27:48.884Z,20.80
2018-08-24T06:30:16.428Z,20.90
2018-08-24T06:32:44.366Z,20.90
2018-08-24T06:35:12.852Z,20.90
2018-08-24T06:37:41.060Z,21.00
2018-08-24T06:40:09.256Z,20.90
2018-08-24T06:42:37.268Z,20.90
2018-08-24T06:45:06.132Z,20.80
2018-08-24T06:47:34.044Z,20.70
2018-08-24T06:50:01.832Z,20.60
2018-08-24T06:52:29.621Z,20.70
2018-08-24T06:54:57.142Z,20.60
2018-08-24T06:57:25.371Z,20.50
2018-08-24T06:59:53.254Z,20.50
2018-08-24T07:02:21.114Z,20.50
2018-08-24T07:04:48.709Z,20.50
2018-08-24T07:07:16.566Z,20.50
2018-08-24T07:09:44.080Z,20.50
2018-08-24T07:12:13.116Z,20.50
2018-08-24T07:14:41.786Z,20.50
2018-08-24T07:17:09.338Z,20.60
2018-08-24T07:19:36.844Z,20.70
2018-08-24T07:22:04.757Z,20.70
2018-08-24T07:24:33.440Z,20.70
2018-08-24T07:27:01.480Z,20.70
2018-08-24T07:29:28.976Z,20.70
2018-08-24T07:31:57.132Z,20.80
2018-08-24T07:34:25.004Z,20.70
2018-08-24T07:36:52.615Z,20.60
2018-08-24T07:39:20.183Z,20.50
2018-08-24T07:41:47.693Z,20.50
2018-08-24T07:44:15.247Z,20.50
2018-08-24T07:46:44.145Z,20.70
2018-08-24T07:49:11.763Z,20.70
2018-08-24T07:51:40.083Z,20.70
2018-08-24T07:54:07.627Z,20.70
2018-08-24T07:56:35.619Z,20.70
2018-08-24T07:59:03.791Z,20.60
2018-08-24T08:01:31.993Z,20.80
2018-08-24T08:04:01.480Z,20.80
2018-08-24T08:06:28.989Z,20.80
2018-08-24T08:08:56.532Z,20.90
2018-08-24T08:11:25.084Z,20.90
2018-08-24T08:13:52.918Z,20.80
2018-08-24T08:16:20.979Z,20.80
2018-08-24T08:18:48.488Z,20.80
2018-08-24T08:21:16.056Z,20.80
2018-08-24T08:23:43.972Z,20.90
2018-08-24T08:26:12.160Z,20.90
2018-08-24T08:28:39.709Z,21.10
2018-08-24T08:31:07.644Z,21.10
2018-08-24T08:33:35.751Z,21.20
2018-08-24T08:36:03.252Z,21.40
2018-08-24T08:38:30.767Z,21.50
2018-08-24T08:40:58.308Z,21.50
2018-08-24T08:43:26.477Z,21.50
2018-08-24T08:45:54.408Z,21.50
2018-08-24T08:48:21.957Z,21.50
2018-08-24T08:50:49.456Z,21.50
2018-08-24T08:53:17.464Z,21.50
2018-08-24T08:55:45.197Z,21.40
2018-08-24T08:58:13.061Z,21.50
2018-08-24T09:00:40.573Z,21.40
2018-08-24T09:03:08.464Z,21.40
2018-08-24T09:05:36.060Z,21.40
2018-08-24T09:08:03.985Z,21.40
2018-08-24T09:10:31.488Z,21.50
2018-08-24T09:12:59.830Z,21.50
2018-08-24T09:15:28.449Z,21.50
2018-08-24T09:18:01.668Z,21.60
2018-08-24T09:20:36.046Z,21.70
2018-08-24T09:23:09.233Z,21.70
2018-08-24T09:25:42.600Z,21.70
2018-08-24T09:28:15.791Z,21.60
2018-08-24T09:30:48.448Z,21.50
2018-08-24T09:33:16.364Z,21.40
2018-08-24T09:35:44.184Z,21.40
2018-08-24T09:38:11.781Z,21.30
2018-08-24T09:40:46.552Z,21.30
2018-08-24T09:43:20.436Z,21.20
2018-08-24T09:45:48.287Z,21.20
2018-08-24T09:48:21.492Z,21.20
2018-08-24T09:50:55.530Z,21.20
2018-08-24T09:53:28.964Z,21.30
2018-08-24T09:55:56.496Z,21.40
2018-08-24T09:58:24.732Z,21.50
2018-08-24T10:00:58.448Z,21.80
2018-08-24T10:03:31.966Z,21.80
2018-08-24T10:06:06.255Z,21.90
2018-08-24T10:08:39.501Z,22.00
2018-08-24T10:11:07.049Z,22.10
2018-08-24T10:13:35.200Z,22.20
2018-08-24T10:16:03.918Z,22.40
2018-08-24T10:18:31.785Z,22.50
2018-08-24T10:20:59.274Z,22.70
2018-08-24T10:23:26.776Z,22.80
2018-08-24T10:25:54.293Z,22.80
2018-08-24T10:28:23.078Z,23.00
2018-08-24T10:30:51.048Z,23.10
2018-08-24T10:33:18.944Z,23.10
2018-08-24T10:35:46.452Z,23.10
2018-08-24T10:38:15.640Z,23.00
2018-08-24T10:40:43.612Z,23.00
2018-08-24T10:43:11.109Z,23.00
2018-08-24T10:45:39.080Z,23.00
2018-08-24T10:48:06.698Z,22.90
2018-08-24T10:50:34.537Z,22.90
2018-08-24T10:53:02.392Z,23.00
2018-08-24T10:55:29.906Z,23.10
2018-08-24T10:57:58.220Z,23.20
2018-08-24T11:00:27.508Z,23.20
2018-08-24T11:02:55.464Z,23.30
2018-08-24T11:05:23.570Z,23.50
2018-08-24T11:07:51.587Z,23.50
2018-08-24T11:10:19.047Z,23.70
2018-08-24T11:12:46.872Z,23.70
2018-08-24T11:15:14.703Z,23.80
2018-08-24T11:17:47.776Z,24.00
2018-08-24T11:20:15.454Z,24.00
2018-08-24T11:22:42.992Z,24.20
2018-08-24T11:25:11.079Z,24.00
2018-08-24T11:27:38.609Z,24.10
2018-08-24T11:30:06.685Z,24.10
2018-08-24T11:32:34.669Z,24.20
2018-08-24T11:35:02.719Z,24.20
2018-08-24T11:37:30.820Z,24.10
2018-08-24T11:39:58.325Z,24.00
2018-08-24T11:42:25.848Z,24.10
2018-08-24T11:44:53.756Z,24.10
2018-08-24T11:47:21.640Z,24.20
2018-08-24T11:49:50.749Z,24.00
2018-08-24T11:52:19.863Z,23.90
2018-08-24T11:54:47.696Z,23.70
2018-08-24T11:57:15.565Z,23.80
2018-08-24T11:59:43.476Z,23.80
2018-08-24T12:02:11.328Z,23.80
2018-08-24T12:04:39.616Z,23.70
2018-08-24T12:07:07.114Z,23.70
2018-08-24T12:09:34.751Z,23.70
2018-08-24T12:12:02.894Z,23.80
2018-08-24T12:14:31.112Z,23.80
2018-08-24T12:16:59.247Z,23.80
2018-08-24T12:19:26.779Z,23.70
2018-08-24T12:21:55.156Z,23.80
2018-08-24T12:24:22.772Z,23.90
2018-08-24T12:26:50.896Z,24.00
2018-08-24T12:29:18.447Z,24.10
2018-08-24T12:31:47.172Z,24.00
2018-08-24T12:34:15.802Z,24.20
2018-08-24T12:36:43.760Z,24.10
2018-08-24T12:39:12.047Z,24.20
2018-08-24T12:41:39.653Z,24.30
2018-08-24T12:44:07.864Z,24.40
2018-08-24T12:46:35.731Z,24.50
2018-08-24T12:49:03.288Z,24.40
2018-08-24T12:51:31.362Z,24.50
2018-08-24T12:53:59.181Z,24.50
2018-08-24T12:56:26.711Z,24.60
2018-08-24T12:58:54.204Z,24.50
2018-08-24T13:01:22.255Z,24.60
2018-08-24T13:03:50.064Z,24.50
2018-08-24T13:06:17.560Z,24.40
2018-08-24T13:08:45.240Z,24.50
2018-08-24T13:11:14.548Z,24.40
2018-08-24T13:13:42.368Z,24.60
2018-08-24T13:16:10.498Z,24.50
2018-08-24T13:18:38.072Z,24.70
2018-08-24T13:21:06.212Z,24.80
2018-08-24T13:23:34.165Z,24.90
2018-08-24T13:26:01.656Z,25.10
2018-08-24T13:28:29.181Z,25.20
2018-08-24T13:30:57.063Z,25.20
2018-08-24T13:33:24.997Z,25.20
2018-08-24T13:35:52.584Z,25.10
2018-08-24T13:38:20.392Z,25.20
2018-08-24T13:40:47.900Z,25.10
2018-08-24T13:43:15.960Z,25.10
2018-08-24T13:45:43.831Z,25.10
2018-08-24T13:48:11.350Z,25.00
2018-08-24T13:50:39.298Z,24.90
2018-08-24T13:53:07.098Z,24.70
2018-08-24T13:55:34.605Z,24.70
2018-08-24T13:58:02.872Z,24.60
2018-08-24T14:00:30.755Z,24.60
2018-08-24T14:02:58.527Z,24.50
2018-08-24T14:05:26.084Z,24.40
2018-08-24T14:07:53.596Z,24.20
2018-08-24T14:10:21.810Z,23.90
2018-08-24T14:12:50.327Z,23.80
2018-08-24T14:15:18.210Z,23.70
2018-08-24T14:17:51.788Z,23.50
2018-08-24T14:20:19.805Z,23.40
2018-08-24T14:22:47.301Z,23.20
2018-08-24T14:25:14.848Z,23.10
2018-08-24T14:27:42.807Z,22.90
2018-08-24T14:30:10.717Z,22.90
2018-08-24T14:32:38.632Z,22.70
2018-08-24T14:35:06.167Z,22.60
2018-08-24T14:37:33.784Z,22.40
2018-08-24T14:40:01.837Z,22.30
2018-08-24T14:42:30.180Z,22.10
2018-08-24T14:44:58.252Z,22.00
2018-08-24T14:47:26.172Z,21.90
2018-08-24T14:49:53.925Z,21.80
2018-08-24T14:52:21.845Z,21.80
2018-08-24T14:54:49.500Z,21.70
2018-08-24T14:57:17.168Z,21.60
2018-08-24T14:59:46.205Z,21.60
2018-08-24T15:02:14.056Z,21.60
2018-08-24T15:04:41.563Z,21.60
2018-08-24T15:07:09.557Z,21.60
2018-08-24T15:09:37.079Z,21.60
2018-08-24T15:12:05.261Z,21.60
2018-08-24T15:14:33.359Z,21.70
2018-08-24T15:17:01.381Z,21.70
2018-08-24T15:19:28.861Z,21.70
2018-08-24T15:21:56.932Z,21.60
2018-08-24T15:24:25.128Z,21.60
2018-08-24T15:26:53.206Z,21.60
2018-08-24T15:29:20.842Z,21.40
2018-08-24T15:31:49.031Z,21.30
2018-08-24T15:34:16.636Z,21.30
2018-08-24T15:36:44.614Z,21.20
2018-08-24T15:39:13.004Z,21.30
2018-08-24T15:41:41.509Z,21.40
2018-08-24T15:44:09.744Z,21.40
2018-08-24T15:46:38.177Z,21.50
2018-08-24T15:49:07.324Z,21.50
2018-08-24T15:51:35.764Z,21.40
2018-08-24T15:54:03.263Z,21.30
2018-08-24T15:56:30.786Z,21.20
2018-08-24T15:58:58.623Z,21.10
2018-08-24T16:01:26.588Z,21.20
2018-08-24T16:03:54.912Z,21.10
2018-08-24T16:06:22.420Z,21.10
2018-08-24T16:08:49.963Z,21.00
2018-08-24T16:11:18.428Z,20.90
2018-08-24T16:13:46.544Z,20.80
2018-08-24T16:16:14.532Z,20.90
2018-08-24T16:18:42.037Z,20.80
2018-08-24T16:21:10.052Z,20.80
2018-08-24T16:23:38.227Z,20.70
2018-08-24T16:26:06.476Z,20.60
2018-08-24T16:28:33.992Z,20.50
2018-08-24T16:31:02.402Z,20.50
2018-08-24T16:33:29.892Z,20.50
2018-08-24T16:35:57.919Z,20.40
2018-08-24T16:38:25.439Z,20.40
2018-08-24T16:40:53.372Z,20.50
2018-08-24T16:43:21.215Z,20.40
2018-08-24T16:45:49.049Z,20.40
2018-08-24T16:48:17.994Z,20.40
2018-08-24T16:50:46.317Z,20.40
2018-08-24T16:53:14.309Z,20.40
2018-08-24T16:55:42.276Z,20.40
2018-08-24T16:58:10.014Z,20.40
2018-08-24T17:00:37.868Z,20.40
2018-08-24T17:03:05.407Z,20.40
2018-08-24T17:05:32.944Z,20.40
2018-08-24T17:08:00.460Z,20.40
2018-08-24T17:10:28.911Z,20.40
2018-08-24T17:12:56.812Z,20.30
2018-08-24T17:15:24.657Z,20.20
2018-08-24T17:17:52.189Z,20.20
2018-08-24T17:20:19.688Z,20.10
2018-08-24T17:22:47.524Z,20.10
2018-08-24T17:25:15.559Z,20.00
2018-08-24T17:27:43.096Z,19.90
2018-08-24T17:30:11.212Z,19.90
2018-08-24T17:32:39.364Z,19.90
2018-08-24T17:35:07.076Z,19.90
2018-08-24T17:37:35.036Z,19.80
2018-08-24T17:40:02.941Z,19.80
2018-08-24T17:42:30.463Z,19.70
2018-08-24T17:44:58.376Z,19.70
2018-08-24T17:47:25.896Z,19.70
2018-08-24T17:49:53.772Z,19.60
2018-08-24T17:52:21.692Z,19.60
2018-08-24T17:54:49.624Z,19.60
2018-08-24T17:57:18.110Z,19.60
2018-08-24T17:59:46.188Z,19.50
2018-08-24T18:02:13.713Z,19.50
2018-08-24T18:04:41.239Z,19.50
2018-08-24T18:07:08.761Z,19.40
2018-08-24T18:09:37.101Z,19.40
2018-08-24T18:12:05.396Z,19.40
2018-08-24T18:14:33.364Z,19.40
2018-08-24T18:17:01.195Z,19.30
2018-08-24T18:19:29.215Z,19.30
2018-08-24T18:21:56.704Z,19.30
2018-08-24T18:24:24.807Z,19.30
2018-08-24T18:26:52.329Z,19.30
2018-08-24T18:29:20.196Z,19.20
2018-08-24T18:31:48.060Z,19.20
2018-08-24T18:34:15.620Z,19.20
2018-08-24T18:36:43.227Z,19.20
2018-08-24T18:39:12.200Z,19.20
2018-08-24T18:41:40.655Z,19.10
2018-08-24T18:44:08.647Z,19.10
2018-08-24T18:46:36.551Z,19.10
2018-08-24T18:49:04.604Z,18.90
2018-08-24T18:51:32.528Z,18.80
2018-08-24T18:54:00.668Z,18.70
2018-08-24T18:56:28.621Z,18.60
2018-08-24T18:58:56.131Z,18.50
2018-08-24T19:01:24.373Z,18.10
2018-08-24T19:03:52.167Z,17.90
2018-08-24T19:06:19.971Z,17.80
2018-08-24T19:08:47.487Z,17.50
2018-08-24T19:11:21.800Z,17.40
2018-08-24T19:13:49.345Z,17.30
2018-08-24T19:16:17.276Z,17.20
2018-08-24T19:18:50.577Z,17.20
2018-08-24T19:21:23.783Z,17.20
2018-08-24T19:23:51.521Z,17.10
2018-08-24T19:26:19.769Z,17.10
2018-08-24T19:28:54.092Z,17.10
2018-08-24T19:31:22.368Z,17.00
2018-08-24T19:33:50.583Z,17.00
2018-08-24T19:36:18.653Z,17.00
2018-08-24T19:38:46.652Z,17.10
2018-08-24T19:41:19.703Z,17.10
2018-08-24T19:43:47.793Z,17.00
2018-08-24T19:46:16.022Z,16.90
2018-08-24T19:48:51.207Z,16.90
2018-08-24T19:51:19.176Z,16.90
2018-08-24T19:53:47.244Z,16.90
2018-08-24T19:56:15.010Z,16.90
2018-08-24T19:58:48.655Z,16.90
2018-08-24T20:01:16.790Z,16.90
2018-08-24T20:03:44.854Z,16.90
2018-08-24T20:06:18.620Z,16.90
2018-08-24T20:08:51.928Z,16.90
2018-08-24T20:11:20.833Z,16.80
2018-08-24T20:13:48.900Z,16.90
2018-08-24T20:16:23.245Z,16.90
2018-08-24T20:18:50.741Z,16.90
2018-08-24T20:21:18.228Z,16.90
2018-08-24T20:23:45.876Z,17.00
2018-08-24T20:26:13.897Z,17.10
2018-08-24T20:28:41.660Z,17.10
2018-08-24T20:31:09.946Z,17.10
2018-08-24T20:33:38.314Z,17.10
2018-08-24T20:36:06.543Z,17.00
2018-08-24T20:38:34.392Z,17.00
2018-08-24T20:41:01.905Z,17.00
2018-08-24T20:43:29.420Z,17.10
2018-08-24T20:45:57.311Z,17.00
2018-08-24T20:48:25.433Z,17.00
2018-08-24T20:50:53.484Z,17.00
2018-08-24T20:53:21.036Z,16.90
2018-08-24T20:55:48.559Z,16.90
2018-08-24T20:58:16.472Z,16.90
2018-08-24T21:00:44.455Z,16.90
2018-08-24T21:03:12.004Z,17.00
2018-08-24T21:05:39.577Z,17.00
2018-08-24T21:08:07.055Z,16.90
2018-08-24T21:10:34.576Z,16.80
2018-08-24T21:13:02.532Z,16.90
2018-08-24T21:15:30.556Z,16.80
2018-08-24T21:17:58.679Z,16.90
2018-08-24T21:20:26.228Z,16.90
2018-08-24T21:22:54.128Z,16.90
2018-08-24T21:25:21.724Z,16.90
2018-08-24T21:27:49.252Z,16.90
2018-08-24T21:30:17.465Z,16.90
2018-08-24T21:32:45.300Z,16.90
2018-08-24T21:35:12.794Z,16.90
2018-08-24T21:37:40.293Z,16.80
2018-08-24T21:40:08.172Z,16.90
2018-08-24T21:42:35.688Z,16.90
2018-08-24T21:45:03.541Z,16.90
2018-08-24T21:47:31.028Z,17.00
2018-08-24T21:49:58.516Z,17.00
2018-08-24T21:52:26.309Z,17.10
2018-08-24T21:54:54.182Z,17.00
2018-08-24T21:57:22.099Z,17.00
2018-08-24T21:59:49.960Z,16.90
2018-08-24T22:02:17.499Z,16.90
2018-08-24T22:04:45.444Z,16.90
2018-08-24T22:07:12.940Z,16.80
2018-08-24T22:09:41.740Z,16.90
2018-08-24T22:12:09.588Z,16.90
2018-08-24T22:14:37.575Z,16.90
2018-08-24T22:17:05.764Z,17.00
2018-08-24T22:19:33.830Z,17.00
2018-08-24T22:22:01.361Z,17.00
2018-08-24T22:24:28.852Z,16.90
2018-08-24T22:26:56.372Z,16.80
2018-08-24T22:29:24.708Z,16.90
2018-08-24T22:31:52.679Z,16.80
2018-08-24T22:34:20.188Z,16.80
2018-08-24T22:36:48.511Z,16.80
2018-08-24T22:39:16.695Z,16.70
2018-08-24T22:41:44.199Z,16.70
2018-08-24T22:44:11.700Z,16.70
2018-08-24T22:46:39.511Z,16.80
2018-08-24T22:49:07.572Z,16.90
2018-08-24T22:51:35.424Z,16.90
2018-08-24T22:54:02.934Z,16.90
2018-08-24T22:56:30.764Z,17.00
2018-08-24T22:58:58.601Z,17.00
2018-08-24T23:01:26.423Z,16.90
2018-08-24T23:03:54.251Z,16.90
2018-08-24T23:06:21.744Z,17.00
2018-08-24T23:08:49.487Z,17.00
2018-08-24T23:11:17.303Z,17.00
2018-08-24T23:13:44.790Z,16.80
2018-08-24T23:16:12.555Z,16.80
2018-08-24T23:18:40.683Z,16.80
2018-08-24T23:21:08.203Z,16.90
2018-08-24T23:23:35.724Z,16.90
2018-08-24T23:26:03.932Z,16.90
2018-08-24T23:28:31.426Z,16.80
2018-08-24T23:30:59.839Z,16.90
2018-08-24T23:33:27.347Z,16.80
2018-08-24T23:35:54.908Z,16.80
2018-08-24T23:38:22.955Z,16.70
2018-08-24T23:40:50.835Z,16.70
2018-08-24T23:43:18.414Z,16.80
2018-08-24T23:45:46.267Z,16.80
2018-08-24T23:48:13.758Z,16.80
2018-08-24T23:50:41.291Z,16.80
2018-08-24T23:53:09.572Z,16.80
2018-08-24T23:55:37.472Z,16.80
2018-08-24T23:58:06.115Z,16.90
